createdAt,value
2022-12-18T00:04:21.986Z,58.88
2022-12-18T00:09:25.452Z,58.41
2022-12-18T00:14:35.683Z,58.77
2022-12-18T00:19:39.044Z,58.79
2022-12-18T00:24:41.818Z,58.85
2022-12-18T00:29:46.649Z,59.13
2022-12-18T00:34:49.479Z,58.93
2022-12-18T00:39:52.240Z,58.82
2022-12-18T00:44:57.681Z,58.92
2022-12-18T00:50:00.427Z,59.13
2022-12-18T00:55:06.393Z,59.05
2022-12-18T01:00:13.904Z,59.08
2022-12-18T01:05:17.692Z,59.11
2022-12-18T01:10:20.596Z,59.15
2022-12-18T01:15:24.705Z,58.91
2022-12-18T01:20:27.549Z,59.00
2022-12-18T01:25:30.310Z,59.17
2022-12-18T01:30:34.674Z,59.24
2022-12-18T01:35:42.962Z,59.37
2022-12-18T01:40:45.716Z,59.62
2022-12-18T01:45:49.902Z,59.57
2022-12-18T01:50:52.821Z,59.69
2022-12-18T01:55:58.635Z,59.96
2022-12-18T02:01:02.920Z,60.05
2022-12-18T02:06:15.042Z,60.09
2022-12-18T02:11:26.700Z,60.28
2022-12-18T02:16:41.349Z,60.41
2022-12-18T02:21:54.693Z,60.31
2022-12-18T02:27:02.874Z,60.38
2022-12-18T02:32:13.675Z,60.71
2022-12-18T02:37:20.358Z,60.63
2022-12-18T02:42:27.886Z,60.59
2022-12-18T02:47:35.078Z,60.86
2022-12-18T02:52:53.223Z,60.74
2022-12-18T02:58:01.450Z,60.72
2022-12-18T03:03:16.500Z,61.07
2022-12-18T03:08:23.133Z,60.87
2022-12-18T03:13:33.631Z,60.94
2022-12-18T03:18:40.693Z,60.97
2022-12-18T03:23:47.966Z,61.13
2022-12-18T03:28:56.031Z,61.22
2022-12-18T03:34:03.077Z,61.10
2022-12-18T03:39:15.358Z,61.22
2022-12-18T03:44:32.237Z,61.30
2022-12-18T03:49:40.721Z,61.44
2022-12-18T03:54:46.766Z,61.39
2022-12-18T03:59:58.597Z,61.25
2022-12-18T04:05:09.238Z,61.38
2022-12-18T04:10:16.648Z,61.29
2022-12-18T04:15:21.367Z,61.27
2022-12-18T04:20:24.200Z,61.45
2022-12-18T04:25:27.062Z,61.43
2022-12-18T04:30:42.259Z,61.44
2022-12-18T04:35:45.602Z,61.47
2022-12-18T04:40:49.457Z,61.66
2022-12-18T04:46:05.761Z,61.57
2022-12-18T04:51:09.019Z,61.55
2022-12-18T04:56:13.869Z,61.92
2022-12-18T05:01:20.300Z,61.73
2022-12-18T05:06:23.110Z,61.71
2022-12-18T05:11:25.995Z,61.84
2022-12-18T05:16:30.176Z,61.57
2022-12-18T05:21:33.196Z,61.61
2022-12-18T05:26:36.016Z,61.52
2022-12-18T05:31:40.334Z,61.62
2022-12-18T05:36:43.477Z,61.66
2022-12-18T05:41:47.324Z,61.44
2022-12-18T05:46:51.532Z,61.77
2022-12-18T05:51:54.450Z,61.51
2022-12-18T05:56:57.273Z,61.51
2022-12-18T06:02:01.571Z,61.53
2022-12-18T06:07:05.603Z,61.58
2022-12-18T06:12:08.743Z,62.00
2022-12-18T06:17:12.887Z,61.96
2022-12-18T06:22:15.713Z,61.84
2022-12-18T06:27:18.835Z,61.72
2022-12-18T06:32:22.999Z,61.69
2022-12-18T06:37:27.003Z,61.90
2022-12-18T06:42:30.695Z,62.03
2022-12-18T06:47:35.024Z,61.82
2022-12-18T06:52:37.993Z,61.77
2022-12-18T06:57:40.741Z,61.77
2022-12-18T07:02:45.024Z,61.75
2022-12-18T07:07:47.875Z,61.79
2022-12-18T07:12:50.654Z,61.87
2022-12-18T07:17:54.766Z,61.78
2022-12-18T07:22:57.489Z,61.69
2022-12-18T07:28:00.241Z,61.70
2022-12-18T07:33:04.541Z,61.68
2022-12-18T07:38:07.325Z,61.77
2022-12-18T07:43:10.052Z,61.87
2022-12-18T07:48:14.234Z,61.76
2022-12-18T07:53:17.424Z,61.65
2022-12-18T07:58:20.459Z,61.69
2022-12-18T08:03:24.588Z,61.88
2022-12-18T08:08:27.327Z,61.91
2022-12-18T08:13:30.576Z,61.46
2022-12-18T08:18:36.107Z,60.75
2022-12-18T08:23:42.694Z,60.34
2022-12-18T08:28:46.272Z,60.04
2022-12-18T08:33:53.177Z,59.66
2022-12-18T08:38:56.830Z,59.49
2022-12-18T08:44:16.901Z,59.71
2022-12-18T08:49:20.963Z,59.32
2022-12-18T08:54:23.794Z,59.23
2022-12-18T08:59:26.818Z,58.92
2022-12-18T09:04:30.936Z,58.65
2022-12-18T09:09:34.814Z,58.77
2022-12-18T09:14:37.723Z,58.53
2022-12-18T09:19:41.816Z,58.45
2022-12-18T09:24:45.535Z,58.24
2022-12-18T09:29:48.282Z,57.79
2022-12-18T09:34:52.491Z,57.82
2022-12-18T09:39:55.440Z,57.52
2022-12-18T09:44:58.562Z,57.54
2022-12-18T09:50:05.988Z,57.42
2022-12-18T09:55:17.221Z,57.28
2022-12-18T10:00:22.803Z,57.06
2022-12-18T10:05:38.518Z,56.92
2022-12-18T10:10:47.598Z,56.93
2022-12-18T10:16:01.743Z,57.05
2022-12-18T10:21:14.463Z,56.97
2022-12-18T10:26:17.256Z,56.92
2022-12-18T10:31:24.322Z,56.82
2022-12-18T10:36:28.953Z,56.93
2022-12-18T10:41:33.245Z,56.92
2022-12-18T10:46:36.480Z,56.69
2022-12-18T10:51:40.745Z,56.48
2022-12-18T10:56:44.442Z,56.36
2022-12-18T11:01:50.535Z,56.39
2022-12-18T11:07:00.429Z,56.49
2022-12-18T11:12:07.189Z,55.67
2022-12-18T11:17:25.811Z,55.73
2022-12-18T11:22:32.719Z,55.56
2022-12-18T11:27:35.608Z,55.90
2022-12-18T11:32:40.823Z,55.88
2022-12-18T11:37:51.331Z,55.63
2022-12-18T11:43:01.697Z,55.48
2022-12-18T11:48:11.112Z,55.57
2022-12-18T11:53:15.656Z,55.46
2022-12-18T11:58:32.160Z,54.33
2022-12-18T12:04:04.323Z,54.54
2022-12-18T12:09:17.864Z,33.69
2022-12-18T12:14:44.854Z,34.05
2022-12-18T12:19:55.963Z,39.55
2022-12-18T12:25:17.285Z,40.11
2022-12-18T12:30:23.193Z,41.35
2022-12-18T12:35:36.002Z,42.85
2022-12-18T12:40:53.885Z,43.37
2022-12-18T12:46:05.715Z,43.84
2022-12-18T12:51:15.901Z,44.63
2022-12-18T12:56:23.349Z,45.14
2022-12-18T13:01:34.607Z,45.82
2022-12-18T13:06:47.737Z,46.44
2022-12-18T13:12:10.086Z,46.57
2022-12-18T13:17:33.078Z,47.04
2022-12-18T13:22:38.063Z,47.54
2022-12-18T13:28:01.627Z,48.35
2022-12-18T13:33:43.124Z,49.11
2022-12-18T13:39:35.118Z,49.87
2022-12-18T13:44:41.953Z,50.35
2022-12-18T13:49:46.373Z,50.86
2022-12-18T13:54:53.274Z,51.23
2022-12-18T13:59:59.075Z,51.69
2022-12-18T14:05:01.832Z,51.99
2022-12-18T14:10:40.836Z,51.96
2022-12-18T14:15:35.355Z,52.02
2022-12-18T14:20:45.393Z,52.23
2022-12-18T14:25:50.836Z,52.79
2022-12-18T14:30:55.719Z,53.07
2022-12-18T14:36:01.541Z,53.42
2022-12-18T14:41:07.121Z,53.85
2022-12-18T14:46:29.906Z,53.71
2022-12-18T14:51:35.593Z,53.66
2022-12-18T14:56:46.365Z,53.78
2022-12-18T15:01:59.029Z,53.98
2022-12-18T15:07:09.924Z,53.94
2022-12-18T15:12:27.699Z,54.19
2022-12-18T15:17:32.240Z,54.23
2022-12-18T15:22:37.603Z,54.27
2022-12-18T15:27:40.564Z,54.29
2022-12-18T15:32:44.829Z,54.20
2022-12-18T15:37:47.647Z,54.25
2022-12-18T15:43:10.404Z,54.16
2022-12-18T15:48:23.889Z,53.49
2022-12-18T15:53:29.657Z,53.18
2022-12-18T15:58:32.408Z,52.99
2022-12-18T16:03:36.763Z,52.71
2022-12-18T16:08:39.575Z,52.15
2022-12-18T16:13:44.399Z,52.29
2022-12-18T16:18:48.503Z,51.98
2022-12-18T16:23:51.346Z,51.79
2022-12-18T16:28:54.099Z,52.00
2022-12-18T16:39:28.190Z,51.77
2022-12-18T16:44:30.928Z,52.12
2022-12-18T16:49:33.765Z,52.39
2022-12-18T16:54:38.352Z,52.41
2022-12-18T16:59:41.973Z,52.64
2022-12-18T17:04:46.300Z,52.62
2022-12-18T17:09:51.265Z,53.04
2022-12-18T17:14:54.277Z,53.24
2022-12-18T17:19:57.235Z,53.40
2022-12-18T17:25:01.569Z,53.19
2022-12-18T17:30:04.910Z,53.50
2022-12-18T17:35:08.852Z,53.54
2022-12-18T17:40:13.222Z,53.90
2022-12-18T17:45:15.924Z,53.78
2022-12-18T17:50:19.035Z,54.15
2022-12-18T17:55:23.161Z,54.15
2022-12-18T18:00:25.974Z,54.51
2022-12-18T18:05:28.872Z,54.65
2022-12-18T18:10:33.774Z,54.77
2022-12-18T18:15:37.888Z,54.73
2022-12-18T18:20:42.547Z,54.84
2022-12-18T18:25:46.868Z,54.36
2022-12-18T18:30:49.822Z,54.14
2022-12-18T18:35:54.245Z,54.06
2022-12-18T18:41:03.111Z,54.36
2022-12-18T18:46:06.903Z,54.33
2022-12-18T18:51:13.171Z,54.75
2022-12-18T18:56:56.420Z,54.74
2022-12-18T19:01:46.643Z,54.64
2022-12-18T19:06:49.720Z,54.77
2022-12-18T19:12:12.687Z,54.94
2022-12-18T19:17:15.465Z,55.15
2022-12-18T19:22:18.562Z,55.09
2022-12-18T19:27:23.735Z,55.04
2022-12-18T19:32:26.564Z,55.45
2022-12-18T19:37:29.507Z,55.38
2022-12-18T19:42:35.660Z,55.49
2022-12-18T19:47:38.612Z,55.29
2022-12-18T19:52:41.439Z,55.50
2022-12-18T19:57:45.872Z,55.56
2022-12-18T20:02:48.931Z,55.50
2022-12-18T20:07:52.284Z,55.69
2022-12-18T20:12:56.370Z,55.59
2022-12-18T20:18:00.275Z,55.78
2022-12-18T20:23:03.618Z,55.97
2022-12-18T20:28:07.724Z,56.03
2022-12-18T20:33:10.480Z,55.96
2022-12-18T20:38:13.463Z,56.13
2022-12-18T20:43:17.676Z,55.70
2022-12-18T20:48:26.352Z,56.03
2022-12-18T20:53:29.632Z,55.94
2022-12-18T20:58:33.736Z,55.81
2022-12-18T21:03:37.859Z,55.88
2022-12-18T21:08:40.767Z,55.88
2022-12-18T21:13:44.882Z,55.97
2022-12-18T21:18:47.762Z,55.93
2022-12-18T21:23:51.056Z,56.15
2022-12-18T21:28:56.232Z,56.00
2022-12-18T21:34:02.345Z,55.65
2022-12-18T21:39:05.426Z,56.06
2022-12-18T21:44:12.243Z,56.16
2022-12-18T21:49:17.576Z,56.12
2022-12-18T21:54:21.156Z,56.02
2022-12-18T21:59:27.377Z,55.91
2022-12-18T22:04:30.426Z,52.61
2022-12-18T22:09:34.650Z,55.12
2022-12-18T22:14:40.241Z,55.85
2022-12-18T22:19:43.732Z,56.30
2022-12-18T22:24:49.944Z,56.38
2022-12-18T22:30:06.237Z,56.45
2022-12-18T22:35:15.606Z,56.46
2022-12-18T22:40:24.115Z,56.59
2022-12-18T22:45:29.876Z,56.74
2022-12-18T22:50:33.727Z,56.88
2022-12-18T22:55:36.501Z,56.86
2022-12-18T23:00:41.325Z,56.97
2022-12-18T23:05:44.936Z,57.00
2022-12-18T23:10:47.693Z,57.41
2022-12-18T23:15:51.767Z,57.27
2022-12-18T23:20:54.541Z,57.14
2022-12-18T23:26:02.309Z,57.16
2022-12-18T23:31:08.910Z,57.13
2022-12-18T23:36:12.043Z,57.49
2022-12-18T23:41:17.470Z,57.79
2022-12-18T23:46:23.825Z,57.81
2022-12-18T23:51:27.144Z,57.86
2022-12-18T23:56:32.151Z,58.14
